Rose Creek, Minnesota
Current Conditions -  °F | °C
As of 6:16 AM on Tuesday 27 Jan 2015 (Local Time) from KAUM Reporting Station
Overcast Overcast  
Wind Chill: 26°   Ceiling: 1800
Heat Index: 34°   Visibility: 10mi
Dew Point: 27°   Wind: 9mph
Humidity: 75%   Direction: 40°NE
Pressure: 30.07"   Gusts: NA
Location:  43.6°N, 92.83°W
Report Text: KAUM 271216Z AUTO 04008KT 10SM OVC018 01/M03 A3007 RMK AO2
Loading
Personal Weather Stations






























Interactive Weather Map New forecast layout! Learn more

10-Day Weather Forecast

Advertisements
Track Severe Weather on mobile